Time;durP1;ratioP1;P1;durP2;ratioP2;P2;SDS_P1;SDS_P2;PMS_P1;PMS_P2;Temp;Humidity;BMP_temperature;BMP_pressure;BME280_temperature;BME280_humidity;BME280_pressure;Samples;Min_cycle;Max_cycle;Signal;HPM_P1;HPM_P2
2021/10/15 00:00:37;;;;;;;;;;;11.20;99.90;;;;;;5013210;23;19914;-89
2021/10/15 00:03:09;;;;;;;;;;;11.20;99.90;;;;;;5029657;28;19905;-90
2021/10/15 00:05:38;;;;;;;;;;;11.30;99.90;;;;;;5019217;28;19915;-90
2021/10/15 00:08:06;;;;;;;;;;;11.30;99.90;;;;;;5008523;28;19925;-90
2021/10/15 00:10:37;;;;;;;;;;;11.30;99.90;;;;;;4999110;28;19926;-90
2021/10/15 00:13:06;;;;;;;;;;;11.30;99.90;;;;;;4997065;28;19906;-90
2021/10/15 00:15:35;;;;;;;;;;;11.30;99.90;;;;;;4999202;28;19930;-90
2021/10/15 00:18:13;;;;;;;;;;;11.40;99.90;;;;;;4986449;28;19937;-89
2021/10/15 00:20:43;;;;;;;;;;;11.30;99.90;;;;;;5000970;28;19922;-90
2021/10/15 00:23:09;;;;;;;;;;;11.30;99.90;;;;;;5000517;28;19913;-90
2021/10/15 00:25:39;;;;;;;;;;;11.30;99.90;;;;;;5000934;28;19901;-90
2021/10/15 00:28:05;;;;;;;;;;;11.20;99.90;;;;;;4985968;28;19902;-89
2021/10/15 00:30:36;;;;;;;;;;;11.20;99.90;;;;;;4997933;28;19960;-90
2021/10/15 00:33:10;;;;;;;;;;;11.20;99.90;;;;;;5000682;28;19909;-88
2021/10/15 00:35:42;;;;;;;;;;;11.20;99.90;;;;;;4987958;28;19914;-88
2021/10/15 00:38:11;;;;;;;;;;;11.20;99.90;;;;;;4985614;28;19933;-90
2021/10/15 00:40:37;;;;;;;;;;;11.20;99.90;;;;;;5008601;28;19961;-88
2021/10/15 00:43:03;;;;;;;;;;;11.20;99.90;;;;;;5006589;28;19917;-90
2021/10/15 00:45:32;;;;;;;;;;;11.20;99.90;;;;;;4998783;28;19913;-89
2021/10/15 00:47:58;;;;;;;;;;;11.20;99.90;;;;;;5003756;28;19981;-89
2021/10/15 00:50:24;;;;;;;;;;;11.10;99.90;;;;;;5005521;28;19906;-89
2021/10/15 00:52:50;;;;;;;;;;;11.20;99.90;;;;;;4994082;28;19952;-89
2021/10/15 00:55:33;;;;;;;;;;;11.20;99.90;;;;;;5002938;28;19910;-91
2021/10/15 00:58:02;;;;;;;;;;;11.30;99.90;;;;;;4990146;28;19914;-89
2021/10/15 01:00:31;;;;;;;;;;;11.20;99.90;;;;;;5010880;28;19916;-89
2021/10/15 01:02:57;;;;;;;;;;;11.20;99.90;;;;;;5011634;28;19937;-90
2021/10/15 01:05:24;;;;;;;;;;;11.30;99.90;;;;;;4993590;28;19902;-90
2021/10/15 01:07:53;;;;;;;;;;;11.20;99.90;;;;;;5000985;28;19993;-89
2021/10/15 01:10:21;;;;;;;;;;;11.20;99.90;;;;;;4985223;28;19966;-90
2021/10/15 01:12:47;;;;;;;;;;;11.20;99.90;;;;;;5010201;28;19929;-90
2021/10/15 01:15:13;;;;;;;;;;;11.20;99.90;;;;;;4988942;28;19945;-90
2021/10/15 01:33:11;;;;;;;;;;;10.90;99.90;;;;;;1291120;26;19950;-90
2021/10/15 01:35:37;;;;;;;;;;;10.80;99.90;;;;;;4985342;28;19912;-90
2021/10/15 01:38:10;;;;;;;;;;;10.70;99.90;;;;;;4985296;28;19898;-90
2021/10/15 01:40:36;;;;;;;;;;;10.60;99.90;;;;;;5002271;28;19910;-90
2021/10/15 01:43:05;;;;;;;;;;;10.60;99.90;;;;;;4985790;28;19894;-89
2021/10/15 01:45:31;;;;;;;;;;;10.40;99.90;;;;;;4977847;28;19905;-89
2021/10/15 01:47:57;;;;;;;;;;;10.40;99.90;;;;;;4979874;28;19966;-90
2021/10/15 01:50:26;;;;;;;;;;;10.50;99.90;;;;;;4985025;28;19902;-90
2021/10/15 01:52:52;;;;;;;;;;;10.50;99.90;;;;;;4967677;28;19907;-90
2021/10/15 01:55:21;;;;;;;;;;;10.60;99.90;;;;;;4964118;28;20233;-90
2021/10/15 01:57:49;;;;;;;;;;;10.70;99.90;;;;;;4993271;28;19925;-91
2021/10/15 02:00:15;;;;;;;;;;;10.70;99.90;;;;;;4981148;28;19933;-90
2021/10/15 02:02:42;;;;;;;;;;;10.70;99.90;;;;;;4974847;28;19906;-90
2021/10/15 02:05:09;;;;;;;;;;;10.80;99.90;;;;;;5053961;23;19981;-91
2021/10/15 02:07:35;;;;;;;;;;;10.80;99.90;;;;;;4988986;28;19924;-91
2021/10/15 02:10:04;;;;;;;;;;;10.80;99.90;;;;;;5010183;28;19914;-91
2021/10/15 02:12:29;;;;;;;;;;;10.70;99.90;;;;;;4996759;28;19905;-90
2021/10/15 02:14:55;;;;;;;;;;;10.70;99.90;;;;;;5025301;23;19937;-90
2021/10/15 02:17:24;;;;;;;;;;;10.80;99.90;;;;;;4990385;28;20075;-89
2021/10/15 02:19:50;;;;;;;;;;;10.80;99.90;;;;;;5037026;23;19972;-89
2021/10/15 02:45:39;;;;;;;;;;;10.70;99.90;;;;;;3327531;26;19925;-92
2021/10/15 02:48:07;;;;;;;;;;;10.60;99.90;;;;;;4977249;28;19933;-92
2021/10/15 02:50:39;;;;;;;;;;;10.70;99.90;;;;;;4990973;28;19914;-92
2021/10/15 02:53:05;;;;;;;;;;;10.70;99.90;;;;;;4992761;28;19958;-91
2021/10/15 02:55:36;;;;;;;;;;;10.70;99.90;;;;;;4992977;28;19915;-92
2021/10/15 02:58:05;;;;;;;;;;;10.60;99.90;;;;;;4981105;29;19926;-92
2021/10/15 03:00:36;;;;;;;;;;;10.50;99.90;;;;;;4996796;28;19906;-92
2021/10/15 03:03:02;;;;;;;;;;;10.40;99.90;;;;;;4996088;28;19910;-92
2021/10/15 03:05:33;;;;;;;;;;;10.30;99.90;;;;;;4994057;28;19925;-92
2021/10/15 03:08:04;;;;;;;;;;;10.20;99.90;;;;;;5051276;23;19970;-91
2021/10/15 03:10:29;;;;;;;;;;;10.30;99.90;;;;;;5007021;28;19913;-91
2021/10/15 03:12:58;;;;;;;;;;;10.40;99.90;;;;;;4994384;28;19898;-90
2021/10/15 03:15:30;;;;;;;;;;;10.30;99.90;;;;;;4996955;28;19921;-91
2021/10/15 03:18:21;;;;;;;;;;;10.30;99.90;;;;;;4990533;28;19902;-90
2021/10/15 03:20:47;;;;;;;;;;;10.30;99.90;;;;;;5000693;28;19906;-90
2021/10/15 03:23:15;;;;;;;;;;;10.30;99.90;;;;;;5002314;28;19898;-90
2021/10/15 03:25:49;;;;;;;;;;;10.40;99.90;;;;;;5002515;28;19906;-89
2021/10/15 03:28:18;;;;;;;;;;;10.50;99.90;;;;;;4983040;28;19899;-90
2021/10/15 03:30:46;;;;;;;;;;;10.50;99.90;;;;;;4983124;28;19926;-90
2021/10/15 03:33:17;;;;;;;;;;;10.50;99.90;;;;;;4982997;28;19929;-90
2021/10/15 03:35:42;;;;;;;;;;;10.50;99.90;;;;;;4996286;28;19898;-91
2021/10/15 03:38:24;;;;;;;;;;;10.50;99.90;;;;;;5002456;28;19898;-91
2021/10/15 03:40:51;;;;;;;;;;;10.40;99.90;;;;;;5002366;28;19949;-91
2021/10/15 03:43:17;;;;;;;;;;;10.40;99.90;;;;;;5002336;28;19898;-91
2021/10/15 03:45:48;;;;;;;;;;;10.30;99.90;;;;;;5000181;28;19909;-91
2021/10/15 03:48:19;;;;;;;;;;;10.30;99.90;;;;;;4994223;28;19928;-91
2021/10/15 03:51:01;;;;;;;;;;;10.30;99.90;;;;;;4990710;28;19899;-91
2021/10/15 03:53:39;;;;;;;;;;;10.40;99.90;;;;;;5007436;28;19898;-90
2021/10/15 03:56:05;;;;;;;;;;;10.30;99.90;;;;;;5000035;28;19941;-90
2021/10/15 03:58:39;;;;;;;;;;;10.40;99.90;;;;;;5002077;28;19898;-90
2021/10/15 04:01:10;;;;;;;;;;;10.20;99.90;;;;;;4997751;28;19899;-90
2021/10/15 04:06:41;;;;;;;;;;;10.30;99.90;;;;;;5010860;28;19904;-92
2021/10/15 04:09:10;;;;;;;;;;;10.20;99.90;;;;;;4997064;28;19922;-90
2021/10/15 04:11:41;;;;;;;;;;;10.20;99.90;;;;;;5002395;28;19897;-90
2021/10/15 04:14:18;;;;;;;;;;;10.00;99.90;;;;;;4998970;28;19905;-90
2021/10/15 04:16:49;;;;;;;;;;;10.10;99.90;;;;;;4990236;28;19973;-91
2021/10/15 04:22:25;;;;;;;;;;;10.10;99.90;;;;;;4979657;28;19929;-90
2021/10/15 04:24:51;;;;;;;;;;;10.10;99.90;;;;;;5004556;28;19898;-90
2021/10/15 04:27:19;;;;;;;;;;;10.10;99.90;;;;;;4996786;28;19909;-91
2021/10/15 04:29:50;;;;;;;;;;;10.20;99.90;;;;;;5003919;28;19912;-90
2021/10/15 04:32:19;;;;;;;;;;;10.20;99.90;;;;;;4996741;28;19902;-91
2021/10/15 04:34:47;;;;;;;;;;;10.20;99.90;;;;;;4997401;28;19894;-91
2021/10/15 04:37:16;;;;;;;;;;;10.10;99.90;;;;;;5004755;28;19929;-91
2021/10/15 04:39:42;;;;;;;;;;;10.10;99.90;;;;;;5004757;28;19920;-90
2021/10/15 04:42:10;;;;;;;;;;;10.00;99.90;;;;;;4996907;28;19898;-91
2021/10/15 04:44:39;;;;;;;;;;;10.10;99.90;;;;;;4996026;28;19898;-91
2021/10/15 04:47:13;;;;;;;;;;;10.10;99.90;;;;;;4998160;28;19929;-91
2021/10/15 04:49:52;;;;;;;;;;;10.30;99.90;;;;;;5004282;28;19950;-91
2021/10/15 04:52:24;;;;;;;;;;;10.40;99.90;;;;;;4992543;28;19901;-90
2021/10/15 04:54:52;;;;;;;;;;;10.40;99.90;;;;;;4987667;28;19954;-90
2021/10/15 05:00:33;;;;;;;;;;;10.40;99.90;;;;;;5016742;28;19929;-92
2021/10/15 06:15:36;;;;;;;;;;;10.70;99.90;;;;;;4995110;28;19925;-94
2021/10/15 06:21:25;;;;;;;;;;;10.80;99.90;;;;;;4989566;28;19925;-90
2021/10/15 06:24:00;;;;;;;;;;;10.90;99.90;;;;;;4983966;28;19910;-90
2021/10/15 06:26:38;;;;;;;;;;;10.90;99.90;;;;;;4980795;28;19914;-90
2021/10/15 06:29:11;;;;;;;;;;;11.00;99.90;;;;;;4984981;28;19914;-85
2021/10/15 06:31:38;;;;;;;;;;;11.00;99.90;;;;;;4984480;28;19914;-85
2021/10/15 06:34:04;;;;;;;;;;;11.10;99.90;;;;;;4981987;28;19911;-87
2021/10/15 06:36:37;;;;;;;;;;;11.20;99.90;;;;;;4979973;28;19945;-87
2021/10/15 06:39:10;;;;;;;;;;;11.20;99.90;;;;;;4978213;28;19911;-88
2021/10/15 06:41:36;;;;;;;;;;;11.20;99.90;;;;;;4984878;28;19913;-88
2021/10/15 06:44:02;;;;;;;;;;;11.30;99.90;;;;;;4978282;28;19921;-86
2021/10/15 06:46:28;;;;;;;;;;;11.30;99.90;;;;;;4981224;28;19955;-88
2021/10/15 06:48:53;;;;;;;;;;;11.40;99.90;;;;;;4989692;28;19910;-86
2021/10/15 06:51:19;;;;;;;;;;;11.30;99.90;;;;;;4990256;28;19913;-88
2021/10/15 06:53:45;;;;;;;;;;;11.40;99.90;;;;;;4998643;28;20060;-87
2021/10/15 06:56:11;;;;;;;;;;;11.50;99.90;;;;;;4995853;28;20449;-85
2021/10/15 06:58:36;;;;;;;;;;;11.40;99.90;;;;;;4996712;28;20012;-87
2021/10/15 07:01:03;;;;;;;;;;;11.50;99.90;;;;;;4984725;28;19986;-85
2021/10/15 07:03:28;;;;;;;;;;;11.60;99.90;;;;;;4991566;28;19941;-85
2021/10/15 07:05:54;;;;;;;;;;;11.70;99.90;;;;;;4979894;28;19926;-85
2021/10/15 07:08:19;;;;;;;;;;;11.70;99.90;;;;;;4976139;28;19921;-88
2021/10/15 07:10:45;;;;;;;;;;;11.80;99.90;;;;;;4979365;28;19910;-87
2021/10/15 07:13:17;;;;;;;;;;;11.90;99.90;;;;;;4978245;28;19922;-86
2021/10/15 07:15:43;;;;;;;;;;;11.90;99.90;;;;;;4982509;28;19926;-85
2021/10/15 07:20:45;;;;;;;;;;;11.90;99.90;;;;;;5117330;23;19930;-87
2021/10/15 07:23:17;;;;;;;;;;;12.00;99.90;;;;;;4997901;28;19974;-85
2021/10/15 07:25:56;;;;;;;;;;;12.00;99.90;;;;;;5008375;28;19916;-86
2021/10/15 07:28:22;;;;;;;;;;;12.10;99.90;;;;;;4994599;28;19910;-86
2021/10/15 07:30:48;;;;;;;;;;;12.10;99.90;;;;;;4989162;28;20013;-86
2021/10/15 07:33:14;;;;;;;;;;;12.00;99.90;;;;;;4989435;28;19910;-86
2021/10/15 07:35:40;;;;;;;;;;;12.00;99.90;;;;;;4991511;28;19914;-86
2021/10/15 07:38:06;;;;;;;;;;;12.10;99.90;;;;;;4990961;28;19914;-87
2021/10/15 07:40:31;;;;;;;;;;;12.10;99.90;;;;;;4990063;28;20348;-86
2021/10/15 07:42:57;;;;;;;;;;;12.00;99.90;;;;;;4990050;28;19964;-85
2021/10/15 07:45:25;;;;;;;;;;;12.10;99.90;;;;;;4987034;28;19918;-86
2021/10/15 07:47:51;;;;;;;;;;;12.20;99.90;;;;;;4996663;28;19918;-85
2021/10/15 07:50:17;;;;;;;;;;;12.20;99.90;;;;;;4990290;28;19998;-86
2021/10/15 07:52:42;;;;;;;;;;;12.20;99.90;;;;;;5000166;28;19969;-85
2021/10/15 07:55:09;;;;;;;;;;;12.20;99.90;;;;;;5005552;28;19918;-86
2021/10/15 07:57:35;;;;;;;;;;;12.40;99.90;;;;;;4998013;28;19946;-86
2021/10/15 08:00:00;;;;;;;;;;;12.40;99.90;;;;;;5005415;28;19910;-86
2021/10/15 08:02:26;;;;;;;;;;;12.50;99.90;;;;;;4992316;28;19918;-85
2021/10/15 08:04:52;;;;;;;;;;;12.60;99.90;;;;;;4997060;28;19946;-86
2021/10/15 08:07:17;;;;;;;;;;;12.70;99.90;;;;;;4998228;28;19917;-85
2021/10/15 08:09:43;;;;;;;;;;;12.80;99.90;;;;;;4997427;28;20029;-86
2021/10/15 08:12:09;;;;;;;;;;;12.90;99.90;;;;;;5000955;28;19914;-86
2021/10/15 08:14:35;;;;;;;;;;;13.00;99.90;;;;;;4996901;28;19910;-86
2021/10/15 08:17:01;;;;;;;;;;;13.30;99.90;;;;;;4990627;28;19925;-86
2021/10/15 08:19:27;;;;;;;;;;;13.40;99.90;;;;;;4995112;28;19915;-87
2021/10/15 08:21:52;;;;;;;;;;;13.50;99.90;;;;;;4998817;28;19914;-85
2021/10/15 08:24:18;;;;;;;;;;;13.60;99.90;;;;;;4995812;28;19949;-85
2021/10/15 08:26:43;;;;;;;;;;;13.40;99.90;;;;;;4991723;28;19922;-85
2021/10/15 08:29:09;;;;;;;;;;;13.40;99.90;;;;;;5000646;28;19914;-86
2021/10/15 08:31:35;;;;;;;;;;;13.40;99.90;;;;;;4997397;28;20010;-85
2021/10/15 08:34:05;;;;;;;;;;;13.50;99.90;;;;;;4996726;28;20359;-85
2021/10/15 08:36:34;;;;;;;;;;;13.50;99.90;;;;;;4998559;28;19918;-86
2021/10/15 08:39:00;;;;;;;;;;;13.40;99.90;;;;;;4989654;28;19936;-87
2021/10/15 08:41:25;;;;;;;;;;;13.50;99.90;;;;;;4985076;28;19969;-85
2021/10/15 08:43:56;;;;;;;;;;;13.70;99.90;;;;;;4992521;28;19922;-86
2021/10/15 08:46:22;;;;;;;;;;;13.80;99.90;;;;;;4992605;28;19950;-86
2021/10/15 08:48:48;;;;;;;;;;;13.70;99.90;;;;;;4982952;28;19918;-86
2021/10/15 08:51:16;;;;;;;;;;;13.70;99.90;;;;;;4998171;28;19913;-85
2021/10/15 08:53:50;;;;;;;;;;;13.80;99.90;;;;;;4997680;28;19946;-85
2021/10/15 08:56:17;;;;;;;;;;;13.90;99.90;;;;;;5000995;28;19917;-85
2021/10/15 08:58:47;;;;;;;;;;;14.00;99.90;;;;;;4985820;28;19978;-85
2021/10/15 09:01:13;;;;;;;;;;;14.10;99.90;;;;;;4980443;28;19914;-86
2021/10/15 09:03:38;;;;;;;;;;;14.20;99.90;;;;;;4995843;28;19906;-87
2021/10/15 09:06:07;;;;;;;;;;;14.20;99.90;;;;;;4999006;28;19934;-85
2021/10/15 09:08:46;;;;;;;;;;;14.20;99.90;;;;;;4998543;28;19965;-88
2021/10/15 09:11:32;;;;;;;;;;;14.20;99.90;;;;;;5001965;28;19906;-86
2021/10/15 09:14:04;;;;;;;;;;;14.30;99.90;;;;;;4987561;28;19977;-88
2021/10/15 09:16:49;;;;;;;;;;;14.30;99.90;;;;;;4993406;28;19925;-87
2021/10/15 09:19:24;;;;;;;;;;;14.40;99.90;;;;;;4999169;28;19918;-87
2021/10/15 09:22:05;;;;;;;;;;;14.40;99.90;;;;;;4994726;28;19918;-85
2021/10/15 09:24:36;;;;;;;;;;;14.50;99.90;;;;;;4979852;28;19937;-86
2021/10/15 09:27:11;;;;;;;;;;;14.70;99.90;;;;;;4981860;28;19911;-84
2021/10/15 09:30:09;;;;;;;;;;;14.70;99.90;;;;;;4967705;29;19918;-85
2021/10/15 09:32:44;;;;;;;;;;;14.90;99.90;;;;;;4940844;28;19973;-85
2021/10/15 09:35:11;;;;;;;;;;;14.70;99.90;;;;;;4993758;28;19914;-86
2021/10/15 09:37:38;;;;;;;;;;;14.70;99.90;;;;;;4994460;28;19910;-87
2021/10/15 09:40:06;;;;;;;;;;;14.70;99.90;;;;;;4983820;28;19938;-87
2021/10/15 09:42:32;;;;;;;;;;;14.70;99.90;;;;;;4973320;29;19942;-84
2021/10/15 09:45:22;;;;;;;;;;;14.70;99.90;;;;;;4976253;28;19930;-85
2021/10/15 09:47:50;;;;;;;;;;;14.60;99.90;;;;;;4990003;28;19914;-88
2021/10/15 09:50:20;;;;;;;;;;;14.60;99.90;;;;;;5003608;28;19921;-86
2021/10/15 09:52:49;;;;;;;;;;;14.80;99.90;;;;;;5001979;28;19924;-87
2021/10/15 09:55:18;;;;;;;;;;;14.90;99.90;;;;;;4994687;28;19983;-86
2021/10/15 09:57:45;;;;;;;;;;;14.90;99.90;;;;;;4995983;28;19917;-85
2021/10/15 10:00:12;;;;;;;;;;;15.00;99.90;;;;;;4994392;28;19914;-87
2021/10/15 10:02:38;;;;;;;;;;;15.00;99.90;;;;;;4998704;28;19925;-87
2021/10/15 10:05:05;;;;;;;;;;;15.00;99.90;;;;;;4991314;28;19938;-87
2021/10/15 10:07:33;;;;;;;;;;;15.00;99.90;;;;;;4993826;28;19902;-88
2021/10/15 10:09:58;;;;;;;;;;;15.00;99.90;;;;;;5008210;28;19910;-87
2021/10/15 10:12:24;;;;;;;;;;;15.10;99.90;;;;;;4988856;28;19972;-86
2021/10/15 10:14:50;;;;;;;;;;;15.20;99.90;;;;;;4991165;28;19915;-85
2021/10/15 10:17:20;;;;;;;;;;;15.40;99.90;;;;;;4997595;28;19981;-84
2021/10/15 10:19:47;;;;;;;;;;;15.40;99.90;;;;;;5003372;28;19922;-86
2021/10/15 10:22:16;;;;;;;;;;;15.40;99.90;;;;;;4998357;28;19977;-87
2021/10/15 10:24:44;;;;;;;;;;;15.40;99.90;;;;;;4977110;28;19942;-85
2021/10/15 10:27:12;;;;;;;;;;;15.50;99.90;;;;;;4985631;28;19953;-84
2021/10/15 10:29:53;;;;;;;;;;;15.60;99.90;;;;;;4987858;28;19914;-85
2021/10/15 10:32:19;;;;;;;;;;;15.70;99.90;;;;;;4964565;28;19922;-85
2021/10/15 10:34:45;;;;;;;;;;;15.80;99.90;;;;;;4986956;28;19906;-85
2021/10/15 10:37:12;;;;;;;;;;;15.90;99.90;;;;;;4994061;28;19941;-85
2021/10/15 10:39:38;;;;;;;;;;;15.90;99.90;;;;;;4987828;28;19910;-85
2021/10/15 10:42:18;;;;;;;;;;;16.00;99.90;;;;;;4972981;28;19960;-85
2021/10/15 10:44:50;;;;;;;;;;;15.90;99.90;;;;;;4983976;28;19914;-85
2021/10/15 10:47:28;;;;;;;;;;;16.10;99.90;;;;;;4990245;28;19914;-83
2021/10/15 10:50:00;;;;;;;;;;;16.10;99.90;;;;;;4977853;28;19922;-84
2021/10/15 10:52:26;;;;;;;;;;;16.00;99.90;;;;;;4991913;28;20289;-85
2021/10/15 10:54:57;;;;;;;;;;;16.00;99.90;;;;;;4971179;28;19915;-85
2021/10/15 10:57:24;;;;;;;;;;;16.10;99.90;;;;;;4974413;28;20354;-85
2021/10/15 10:59:51;;;;;;;;;;;16.20;99.90;;;;;;4986406;28;20368;-85
2021/10/15 11:02:19;;;;;;;;;;;16.40;99.90;;;;;;4978098;28;19933;-84
2021/10/15 11:04:45;;;;;;;;;;;16.40;99.90;;;;;;4973202;28;20298;-84
2021/10/15 11:07:10;;;;;;;;;;;16.40;99.90;;;;;;4964063;29;19922;-85
2021/10/15 11:09:44;;;;;;;;;;;16.20;99.90;;;;;;4965928;29;19952;-85
2021/10/15 11:12:28;;;;;;;;;;;16.10;99.90;;;;;;4977075;29;19929;-84
2021/10/15 11:14:57;;;;;;;;;;;16.10;99.90;;;;;;4991537;28;19933;-84
2021/10/15 11:17:26;;;;;;;;;;;16.10;99.90;;;;;;4982755;28;19925;-85
2021/10/15 11:20:07;;;;;;;;;;;16.10;99.90;;;;;;4972698;28;19918;-85
2021/10/15 11:22:40;;;;;;;;;;;16.10;99.90;;;;;;4971113;28;19910;-84
2021/10/15 11:25:09;;;;;;;;;;;16.10;99.90;;;;;;4974190;28;19918;-85
2021/10/15 11:27:35;;;;;;;;;;;16.10;99.90;;;;;;4978809;28;19974;-85
2021/10/15 11:30:06;;;;;;;;;;;16.00;99.90;;;;;;4967791;28;19910;-85
2021/10/15 11:32:32;;;;;;;;;;;16.10;99.90;;;;;;4969093;29;19910;-86
2021/10/15 11:35:03;;;;;;;;;;;16.20;99.90;;;;;;4972297;28;19915;-87
2021/10/15 11:37:44;;;;;;;;;;;16.30;99.90;;;;;;4972655;29;20342;-88
2021/10/15 11:40:12;;;;;;;;;;;16.40;99.90;;;;;;5114939;23;19973;-87
2021/10/15 11:45:25;;;;;;;;;;;16.60;99.90;;;;;;4972387;28;19930;-86
2021/10/15 11:48:00;;;;;;;;;;;16.50;99.90;;;;;;4969366;29;19922;-87
2021/10/15 11:50:43;;;;;;;;;;;16.50;99.90;;;;;;4965893;28;19922;-87
2021/10/15 11:53:09;;;;;;;;;;;16.60;99.90;;;;;;4962677;29;19966;-86
2021/10/15 11:55:36;;;;;;;;;;;16.70;99.90;;;;;;4970777;28;19922;-87
2021/10/15 11:58:17;;;;;;;;;;;16.80;99.90;;;;;;4955342;29;20391;-87
2021/10/15 12:01:01;;;;;;;;;;;16.90;99.90;;;;;;4948124;29;19918;-88
2021/10/15 12:03:28;;;;;;;;;;;16.80;99.90;;;;;;4964812;29;19915;-87
2021/10/15 12:05:54;;;;;;;;;;;16.70;99.90;;;;;;4969381;28;19923;-88
2021/10/15 12:08:32;;;;;;;;;;;16.80;99.90;;;;;;4970760;28;19918;-88
2021/10/15 12:10:58;;;;;;;;;;;16.80;99.90;;;;;;4956807;29;19922;-87
2021/10/15 12:13:27;;;;;;;;;;;16.90;99.90;;;;;;4968797;29;19902;-87
2021/10/15 12:15:55;;;;;;;;;;;16.90;99.90;;;;;;4950114;29;19944;-87
2021/10/15 12:18:31;;;;;;;;;;;16.90;99.90;;;;;;4957599;29;19949;-86
2021/10/15 12:21:12;;;;;;;;;;;17.00;99.90;;;;;;4967508;29;19938;-88
2021/10/15 12:30:01;;;;;;;;;;;17.20;99.90;;;;;;4901585;28;19908;-87
2021/10/15 12:35:41;;;;;;;;;;;17.00;99.90;;;;;;4975395;28;19922;-87
2021/10/15 12:43:44;;;;;;;;;;;16.90;99.90;;;;;;4988930;28;19911;-86
2021/10/15 12:49:06;;;;;;;;;;;16.80;99.90;;;;;;4111540;26;19926;-86
2021/10/15 12:51:42;;;;;;;;;;;16.80;99.90;;;;;;4979170;28;19922;-85
2021/10/15 12:54:08;;;;;;;;;;;16.90;99.90;;;;;;4962997;28;19915;-86
2021/10/15 13:00:13;;;;;;;;;;;;;;;;;;;;;
2021/10/15 13:02:47;;;;;;;;;;;17.20;99.90;;;;;;4974598;28;19938;-85
2021/10/15 13:05:26;;;;;;;;;;;17.20;99.90;;;;;;4977485;29;19918;-86
2021/10/15 13:08:31;;;;;;;;;;;;;;;;;;;;;
2021/10/15 13:11:09;;;;;;;;;;;17.40;99.90;;;;;;4966755;28;20363;-85
2021/10/15 13:13:38;;;;;;;;;;;17.30;99.90;;;;;;4961784;29;19938;-87
2021/10/15 13:16:15;;;;;;;;;;;17.20;99.90;;;;;;4953272;29;20044;-86
2021/10/15 13:18:49;;;;;;;;;;;17.10;99.90;;;;;;4960493;28;19947;-86
2021/10/15 13:21:15;;;;;;;;;;;16.90;99.90;;;;;;4962764;28;19898;-85
2021/10/15 13:23:49;;;;;;;;;;;16.90;99.90;;;;;;4976446;28;19922;-85
2021/10/15 13:26:18;;;;;;;;;;;16.90;99.90;;;;;;4952232;29;19915;-86
2021/10/15 13:28:51;;;;;;;;;;;17.00;99.90;;;;;;4960532;29;19957;-84
2021/10/15 13:31:32;;;;;;;;;;;16.90;99.90;;;;;;5137790;23;19981;-88
2021/10/15 13:33:59;;;;;;;;;;;17.10;99.90;;;;;;4994269;28;19920;-86
2021/10/15 13:36:26;;;;;;;;;;;17.10;99.90;;;;;;5016724;28;19917;-85
2021/10/15 13:38:55;;;;;;;;;;;17.10;99.90;;;;;;5013723;28;19924;-85
2021/10/15 13:41:43;;;;;;;;;;;17.10;99.90;;;;;;4975330;29;19945;-84
2021/10/15 13:44:38;;;;;;;;;;;17.00;99.90;;;;;;4977515;28;19999;-84
2021/10/15 13:47:09;;;;;;;;;;;17.10;99.90;;;;;;4983998;28;19921;-85
2021/10/15 13:49:57;;;;;;;;;;;17.20;99.90;;;;;;4973519;29;20375;-85
2021/10/15 13:52:23;;;;;;;;;;;17.30;99.90;;;;;;4990154;28;19911;-84
2021/10/15 13:54:49;;;;;;;;;;;17.30;99.90;;;;;;4991906;28;19921;-84
2021/10/15 13:57:19;;;;;;;;;;;17.30;99.90;;;;;;4994063;28;19953;-85
2021/10/15 13:59:58;;;;;;;;;;;17.20;99.90;;;;;;4982926;28;19937;-84
2021/10/15 14:02:34;;;;;;;;;;;17.20;99.90;;;;;;4990387;28;19910;-85
2021/10/15 14:05:03;;;;;;;;;;;17.10;99.90;;;;;;4982870;28;19920;-85
2021/10/15 14:07:29;;;;;;;;;;;17.20;99.90;;;;;;4992204;28;19910;-85
2021/10/15 14:09:54;;;;;;;;;;;17.30;99.90;;;;;;4995101;28;19933;-84
2021/10/15 14:12:21;;;;;;;;;;;17.30;99.90;;;;;;4996008;28;19914;-84
2021/10/15 14:14:47;;;;;;;;;;;17.20;99.90;;;;;;4995548;28;20398;-84
2021/10/15 14:17:17;;;;;;;;;;;17.30;99.90;;;;;;4984678;28;19922;-84
2021/10/15 14:22:47;;;;;;;;;;;17.50;99.90;;;;;;4948020;29;20481;-84
2021/10/15 14:25:23;;;;;;;;;;;17.60;99.90;;;;;;4970002;29;19910;-86
2021/10/15 14:27:49;;;;;;;;;;;17.50;99.90;;;;;;4980913;28;19910;-86
2021/10/15 14:30:26;;;;;;;;;;;17.50;99.90;;;;;;4991103;28;19917;-84
2021/10/15 14:33:03;;;;;;;;;;;;;;;;;;;;;
2021/10/15 14:35:36;;;;;;;;;;;17.70;99.90;;;;;;4992228;28;19946;-85
2021/10/15 14:38:05;;;;;;;;;;;17.60;99.90;;;;;;4987172;28;19914;-86
2021/10/15 14:40:45;;;;;;;;;;;17.50;99.90;;;;;;4984226;28;19914;-84
2021/10/15 14:43:21;;;;;;;;;;;17.40;99.90;;;;;;4952256;28;19970;-86
2021/10/15 14:45:47;;;;;;;;;;;17.40;99.90;;;;;;4977067;28;19973;-87
2021/10/15 14:48:13;;;;;;;;;;;17.50;99.90;;;;;;4998481;28;19926;-85
2021/10/15 14:50:40;;;;;;;;;;;17.50;99.90;;;;;;4998887;28;19913;-84
2021/10/15 14:53:09;;;;;;;;;;;17.40;99.90;;;;;;4986679;28;19906;-89
2021/10/15 14:55:46;;;;;;;;;;;17.30;99.90;;;;;;4995113;28;19927;-84
2021/10/15 14:58:12;;;;;;;;;;;17.20;99.90;;;;;;4966920;28;19973;-86
2021/10/15 15:00:56;;;;;;;;;;;17.20;99.90;;;;;;4981755;28;19946;-86
2021/10/15 15:03:25;;;;;;;;;;;17.30;99.90;;;;;;4998982;28;19981;-85
2021/10/15 15:05:51;;;;;;;;;;;17.20;99.90;;;;;;4990395;28;19978;-86
2021/10/15 15:08:37;;;;;;;;;;;17.20;99.90;;;;;;4978844;28;19925;-87
2021/10/15 15:11:03;;;;;;;;;;;17.10;99.90;;;;;;4994061;28;19902;-87
2021/10/15 15:13:40;;;;;;;;;;;16.80;99.90;;;;;;4998958;28;19933;-87
2021/10/15 15:16:31;;;;;;;;;;;16.90;99.90;;;;;;4980402;28;19910;-87
2021/10/15 15:18:57;;;;;;;;;;;16.90;99.90;;;;;;4992322;28;19978;-87
2021/10/15 15:21:22;;;;;;;;;;;16.70;99.90;;;;;;5141564;23;19941;-88
2021/10/15 15:23:51;;;;;;;;;;;16.70;99.90;;;;;;5014103;28;19910;-88
2021/10/15 15:26:17;;;;;;;;;;;16.60;99.90;;;;;;5015886;28;19929;-86
2021/10/15 15:28:43;;;;;;;;;;;16.60;99.90;;;;;;5014502;28;19918;-85
2021/10/15 15:31:09;;;;;;;;;;;16.60;99.90;;;;;;5004728;28;19929;-84
2021/10/15 15:33:35;;;;;;;;;;;16.50;99.90;;;;;;4994611;28;19972;-85
2021/10/15 15:36:05;;;;;;;;;;;16.50;99.90;;;;;;4984009;28;19977;-86
2021/10/15 15:38:30;;;;;;;;;;;16.40;99.90;;;;;;4984908;28;19914;-84
2021/10/15 15:40:56;;;;;;;;;;;16.30;99.90;;;;;;4979030;28;19914;-85
2021/10/15 15:43:23;;;;;;;;;;;16.20;99.90;;;;;;4991916;28;19915;-86
2021/10/15 15:45:50;;;;;;;;;;;16.20;99.90;;;;;;4990915;28;19917;-85
2021/10/15 15:48:17;;;;;;;;;;;16.10;99.90;;;;;;4983259;28;19984;-85
2021/10/15 15:50:50;;;;;;;;;;;16.10;99.90;;;;;;4989286;28;19918;-85
2021/10/15 15:53:25;;;;;;;;;;;16.00;99.90;;;;;;4989212;28;19919;-86
2021/10/15 15:55:52;;;;;;;;;;;16.00;99.90;;;;;;4990176;28;19913;-85
2021/10/15 15:58:18;;;;;;;;;;;16.00;99.90;;;;;;4998675;28;20212;-86
2021/10/15 16:00:43;;;;;;;;;;;15.90;99.90;;;;;;4998405;28;19934;-86
2021/10/15 16:03:10;;;;;;;;;;;15.80;99.90;;;;;;4994604;28;20357;-85
2021/10/15 16:05:39;;;;;;;;;;;15.70;99.90;;;;;;4985942;28;20000;-85
2021/10/15 16:08:05;;;;;;;;;;;15.60;99.90;;;;;;4981618;28;19925;-85
2021/10/15 16:10:30;;;;;;;;;;;15.60;99.90;;;;;;4993070;28;19898;-86
2021/10/15 16:12:56;;;;;;;;;;;15.50;99.90;;;;;;4993339;28;19942;-86
2021/10/15 16:15:27;;;;;;;;;;;15.50;99.90;;;;;;4993004;28;20088;-89
2021/10/15 16:17:56;;;;;;;;;;;15.50;99.90;;;;;;4996569;28;19922;-85
2021/10/15 16:20:25;;;;;;;;;;;15.40;99.90;;;;;;4998376;28;19924;-85
2021/10/15 16:23:20;;;;;;;;;;;15.30;99.90;;;;;;5000066;28;19910;-88
2021/10/15 16:28:29;;;;;;;;;;;15.20;99.90;;;;;;4980061;28;19925;-88
2021/10/15 16:31:13;;;;;;;;;;;15.20;99.90;;;;;;4963545;29;19910;-88
2021/10/15 16:39:49;;;;;;;;;;;15.00;99.90;;;;;;4957113;29;19918;-91
2021/10/15 16:45:17;;;;;;;;;;;14.80;99.90;;;;;;5205699;23;19933;-93
2021/10/15 16:47:55;;;;;;;;;;;14.80;99.90;;;;;;4982413;29;19895;-92
2021/10/15 16:50:28;;;;;;;;;;;14.70;99.90;;;;;;4970653;28;19962;-93
2021/10/15 16:52:57;;;;;;;;;;;14.70;99.90;;;;;;4986446;28;19913;-93
2021/10/15 17:01:19;;;;;;;;;;;14.40;99.90;;;;;;4906526;29;19928;-93
2021/10/15 17:04:00;;;;;;;;;;;14.30;99.90;;;;;;4984897;28;19907;-93
2021/10/15 20:21:09;;;;;;;;;;;;;;;;;;;;;
2021/10/15 20:23:56;;;;;;;;;;;12.90;99.90;;;;;;5016154;28;19917;-94
2021/10/15 20:29:45;;;;;;;;;;;12.90;99.90;;;;;;5000568;28;19925;-93
2021/10/15 20:42:32;;;;;;;;;;;12.90;99.90;;;;;;4928205;29;19927;-92
2021/10/15 20:45:01;;;;;;;;;;;12.80;99.90;;;;;;4918180;29;20007;-90
2021/10/15 20:47:29;;;;;;;;;;;12.80;99.90;;;;;;4911796;29;19946;-92
2021/10/15 20:49:55;;;;;;;;;;;12.80;99.90;;;;;;4911261;29;19915;-92
2021/10/15 20:52:23;;;;;;;;;;;12.80;99.90;;;;;;4911429;29;20006;-91
2021/10/15 20:54:48;;;;;;;;;;;12.90;99.90;;;;;;4911526;29;19915;-91
2021/10/15 20:57:15;;;;;;;;;;;12.80;99.90;;;;;;4914141;29;19977;-93